createdAt,value
2018-05-15T00:01:30.593Z,19.27
2018-05-15T00:03:58.193Z,19.25
2018-05-15T00:06:25.820Z,19.17
2018-05-15T00:08:53.412Z,19.14
2018-05-15T00:11:21.037Z,19.06
2018-05-15T00:13:48.680Z,19.02
2018-05-15T00:16:16.314Z,18.86
2018-05-15T00:18:43.901Z,18.79
2018-05-15T00:21:11.530Z,18.78
2018-05-15T00:23:39.128Z,18.58
2018-05-15T00:26:06.743Z,18.46
2018-05-15T00:28:34.356Z,18.46
2018-05-15T00:31:01.972Z,18.55
2018-05-15T00:33:29.624Z,18.56
2018-05-15T00:35:57.240Z,18.46
2018-05-15T00:38:24.833Z,18.44
2018-05-15T00:40:52.510Z,18.37
2018-05-15T00:43:20.104Z,18.26
2018-05-15T00:45:47.688Z,18.15
2018-05-15T00:48:15.327Z,17.98
2018-05-15T00:50:43.005Z,17.89
2018-05-15T00:53:10.638Z,17.79
2018-05-15T00:55:44.629Z,17.64
2018-05-15T00:58:12.301Z,17.71
2018-05-15T01:00:39.890Z,17.82
2018-05-15T01:03:07.516Z,17.87
2018-05-15T01:05:35.106Z,17.89
2018-05-15T01:08:02.761Z,17.76
2018-05-15T01:10:30.368Z,17.57
2018-05-15T01:12:58.078Z,17.51
2018-05-15T01:15:25.700Z,17.60
2018-05-15T01:17:53.280Z,17.55
2018-05-15T01:20:20.968Z,17.61
2018-05-15T01:22:48.585Z,17.46
2018-05-15T01:25:16.212Z,17.37
2018-05-15T01:27:43.816Z,17.30
2018-05-15T01:30:11.445Z,17.25
2018-05-15T01:32:39.041Z,17.10
2018-05-15T01:35:06.788Z,16.91
2018-05-15T01:37:36.735Z,16.72
2018-05-15T01:40:04.568Z,16.61
2018-05-15T01:42:32.467Z,16.37
2018-05-15T01:45:00.792Z,16.29
2018-05-15T01:47:31.390Z,16.31
2018-05-15T01:49:59.240Z,16.38
2018-05-15T01:52:27.042Z,16.55
2018-05-15T01:54:55.162Z,16.59
2018-05-15T01:57:22.774Z,16.71
2018-05-15T01:59:50.409Z,16.60
2018-05-15T02:02:18.055Z,16.60
2018-05-15T02:04:45.739Z,16.63
2018-05-15T02:07:13.368Z,16.62
2018-05-15T02:09:41.000Z,16.45
2018-05-15T02:12:08.721Z,16.38
2018-05-15T02:14:36.374Z,16.47
2018-05-15T02:17:04.265Z,16.45
2018-05-15T02:19:31.872Z,16.48
2018-05-15T02:21:59.612Z,16.27
2018-05-15T02:24:27.234Z,16.29
2018-05-15T02:26:54.958Z,16.14
2018-05-15T02:29:22.743Z,16.13
2018-05-15T02:31:50.480Z,16.15
2018-05-15T02:34:18.473Z,15.97
2018-05-15T02:36:48.683Z,15.91
2018-05-15T02:39:16.766Z,16.03
2018-05-15T02:41:45.442Z,16.06
2018-05-15T02:44:16.446Z,15.90
2018-05-15T02:46:44.561Z,15.86
2018-05-15T02:49:12.310Z,15.99
2018-05-15T02:51:40.920Z,16.05
2018-05-15T02:54:10.242Z,16.01
2018-05-15T02:56:41.729Z,15.89
2018-05-15T02:59:09.493Z,15.67
2018-05-15T03:01:38.053Z,15.75
2018-05-15T03:04:05.746Z,15.76
2018-05-15T03:06:35.008Z,15.62
2018-05-15T03:09:11.624Z,15.55
2018-05-15T03:11:39.856Z,15.49
2018-05-15T03:14:08.267Z,15.60
2018-05-15T03:16:36.214Z,15.69
2018-05-15T03:19:03.891Z,15.63
2018-05-15T03:21:31.924Z,15.73
2018-05-15T03:23:59.723Z,15.57
2018-05-15T03:26:28.944Z,15.61
2018-05-15T03:28:56.745Z,15.52
2018-05-15T03:31:25.619Z,15.50
2018-05-15T03:33:53.534Z,15.69
2018-05-15T03:36:22.090Z,15.75
2018-05-15T03:38:50.745Z,15.75
2018-05-15T03:41:18.676Z,15.63
2018-05-15T03:43:46.328Z,15.61
2018-05-15T03:46:13.978Z,15.67
2018-05-15T03:48:42.077Z,15.62
2018-05-15T03:51:10.352Z,15.59
2018-05-15T03:53:40.357Z,15.68
2018-05-15T03:56:08.341Z,15.72
2018-05-15T03:58:36.343Z,15.83
2018-05-15T04:01:16.092Z,15.78
2018-05-15T04:03:55.829Z,15.95
2018-05-15T04:06:35.576Z,15.89
2018-05-15T04:09:06.364Z,15.84
2018-05-15T04:11:35.065Z,15.54
2018-05-15T04:14:03.788Z,15.43
2018-05-15T04:16:32.631Z,15.41
2018-05-15T04:19:00.512Z,15.58
2018-05-15T04:21:28.609Z,15.69
2018-05-15T04:23:56.617Z,15.85
2018-05-15T04:26:24.561Z,15.86
2018-05-15T04:28:53.756Z,15.96
2018-05-15T04:31:21.561Z,15.86
2018-05-15T04:33:49.333Z,15.98
2018-05-15T04:36:17.112Z,16.18
2018-05-15T04:38:45.674Z,16.31
2018-05-15T04:41:14.340Z,16.36
2018-05-15T04:43:42.348Z,16.48
2018-05-15T04:46:09.925Z,16.51
2018-05-15T04:48:37.538Z,16.48
2018-05-15T04:51:05.211Z,16.59
2018-05-15T04:53:32.847Z,16.62
2018-05-15T04:56:00.479Z,16.71
2018-05-15T04:58:28.128Z,16.75
2018-05-15T05:00:55.961Z,16.73
2018-05-15T05:03:24.037Z,16.71
2018-05-15T05:05:51.836Z,16.78
2018-05-15T05:08:19.613Z,16.84
2018-05-15T05:10:47.613Z,16.82
2018-05-15T05:13:15.301Z,16.94
2018-05-15T05:15:43.119Z,16.91
2018-05-15T05:18:10.789Z,16.87
2018-05-15T05:20:38.800Z,16.98
2018-05-15T05:23:06.701Z,16.89
2018-05-15T05:25:34.476Z,17.01
2018-05-15T05:28:02.137Z,17.06
2018-05-15T05:30:29.740Z,17.12
2018-05-15T05:32:57.556Z,17.20
2018-05-15T05:35:25.211Z,17.19
2018-05-15T05:37:52.905Z,17.28
2018-05-15T05:40:20.622Z,17.31
2018-05-15T05:42:48.329Z,17.36
2018-05-15T05:45:15.938Z,17.39
2018-05-15T05:47:43.625Z,17.52
2018-05-15T05:50:11.250Z,17.57
2018-05-15T05:52:38.937Z,17.63
2018-05-15T05:55:06.540Z,17.71
2018-05-15T05:57:34.169Z,17.76
2018-05-15T06:00:01.761Z,17.87
2018-05-15T06:02:29.520Z,17.89
2018-05-15T06:04:57.221Z,17.98
2018-05-15T06:07:24.877Z,18.05
2018-05-15T06:09:52.502Z,18.11
2018-05-15T06:12:20.180Z,18.13
2018-05-15T06:14:47.836Z,18.17
2018-05-15T06:17:15.456Z,18.28
2018-05-15T06:19:43.116Z,18.34
2018-05-15T06:22:10.770Z,18.36
2018-05-15T06:24:38.525Z,18.43
2018-05-15T06:27:06.100Z,18.52
2018-05-15T06:29:33.795Z,18.59
2018-05-15T06:32:01.350Z,18.60
2018-05-15T06:34:28.997Z,18.65
2018-05-15T06:36:56.616Z,18.72
2018-05-15T06:39:24.224Z,18.83
2018-05-15T06:41:51.842Z,18.84
2018-05-15T06:44:19.432Z,18.86
2018-05-15T06:46:47.065Z,18.95
2018-05-15T06:49:14.652Z,19.02
2018-05-15T06:51:42.305Z,19.13
2018-05-15T06:54:09.912Z,19.21
2018-05-15T06:56:37.533Z,19.24
2018-05-15T06:59:05.196Z,19.38
2018-05-15T07:01:32.842Z,19.43
2018-05-15T07:04:00.450Z,19.49
2018-05-15T07:06:28.150Z,19.56
2018-05-15T07:08:55.768Z,19.62
2018-05-15T07:11:23.353Z,19.68
2018-05-15T07:13:51.087Z,19.73
2018-05-15T07:16:18.710Z,19.83
2018-05-15T07:18:46.344Z,19.91
2018-05-15T07:21:13.937Z,19.95
2018-05-15T07:23:41.595Z,20.03
2018-05-15T07:26:09.185Z,20.13
2018-05-15T07:28:36.813Z,20.19
2018-05-15T07:31:04.513Z,20.21
2018-05-15T07:33:32.141Z,20.29
2018-05-15T07:35:59.764Z,20.35
2018-05-15T07:38:27.400Z,20.40
2018-05-15T07:40:54.993Z,20.56
2018-05-15T07:43:22.641Z,20.60
2018-05-15T07:45:50.241Z,20.66
2018-05-15T07:48:17.902Z,20.77
2018-05-15T07:50:45.502Z,20.88
2018-05-15T07:53:13.124Z,20.88
2018-05-15T07:55:40.741Z,20.98
2018-05-15T07:58:08.481Z,21.07
2018-05-15T08:00:36.086Z,21.13
2018-05-15T08:03:03.681Z,21.18
2018-05-15T08:05:31.297Z,21.30
2018-05-15T08:07:58.889Z,21.39
2018-05-15T08:10:26.630Z,21.52
2018-05-15T08:12:54.278Z,21.54
2018-05-15T08:15:21.885Z,21.54
2018-05-15T08:17:49.480Z,21.53
2018-05-15T08:20:17.144Z,21.55
2018-05-15T08:22:44.743Z,21.61
2018-05-15T08:25:12.369Z,21.61
2018-05-15T08:27:39.952Z,21.67
2018-05-15T08:30:07.580Z,21.77
2018-05-15T08:32:35.172Z,21.85
2018-05-15T08:35:02.822Z,22.00
2018-05-15T08:37:30.496Z,22.07
2018-05-15T08:39:58.094Z,22.11
2018-05-15T08:42:25.694Z,22.21
2018-05-15T08:44:53.367Z,22.35
2018-05-15T08:47:20.985Z,22.50
2018-05-15T08:49:48.632Z,22.57
2018-05-15T08:52:16.252Z,22.63
2018-05-15T08:54:43.856Z,22.75
2018-05-15T08:57:11.515Z,22.85
2018-05-15T08:59:39.110Z,22.80
2018-05-15T09:02:06.740Z,22.76
2018-05-15T09:04:34.401Z,22.67
2018-05-15T09:07:02.047Z,22.91
2018-05-15T09:09:29.783Z,23.06
2018-05-15T09:11:57.428Z,23.22
2018-05-15T09:14:25.029Z,23.16
2018-05-15T09:16:52.793Z,23.42
2018-05-15T09:19:20.458Z,23.57
2018-05-15T09:21:48.036Z,23.63
2018-05-15T09:24:15.641Z,23.65
2018-05-15T09:26:43.274Z,23.57
2018-05-15T09:29:11.037Z,23.55
2018-05-15T09:31:38.674Z,23.37
2018-05-15T09:34:07.216Z,23.34
2018-05-15T09:36:34.856Z,23.27
2018-05-15T09:39:02.468Z,23.57
2018-05-15T09:41:30.137Z,23.84
2018-05-15T09:43:57.708Z,23.97
2018-05-15T09:46:25.313Z,24.05
2018-05-15T09:48:52.969Z,24.13
2018-05-15T09:51:20.560Z,24.35
2018-05-15T09:53:48.238Z,24.39
2018-05-15T09:56:15.905Z,24.43
2018-05-15T09:58:43.664Z,24.06
2018-05-15T10:01:11.276Z,23.99
2018-05-15T10:03:38.915Z,23.70
2018-05-15T10:06:06.524Z,23.74
2018-05-15T10:08:34.140Z,24.03
2018-05-15T10:11:01.704Z,23.90
2018-05-15T10:13:30.245Z,23.78
2018-05-15T10:15:57.996Z,24.05
2018-05-15T10:18:25.685Z,24.25
2018-05-15T10:20:53.308Z,24.41
2018-05-15T10:23:20.933Z,24.36
2018-05-15T10:25:48.552Z,24.25
2018-05-15T10:28:16.205Z,24.30
2018-05-15T10:30:43.809Z,24.50
2018-05-15T10:33:11.437Z,24.82
2018-05-15T10:35:39.080Z,25.16
2018-05-15T10:38:06.701Z,25.15
2018-05-15T10:40:34.340Z,24.87
2018-05-15T10:43:02.005Z,24.75
2018-05-15T10:45:29.644Z,24.90
2018-05-15T10:47:57.242Z,25.43
2018-05-15T10:50:24.891Z,24.81
2018-05-15T10:52:52.557Z,24.99
2018-05-15T10:55:20.193Z,24.97
2018-05-15T10:57:47.821Z,25.11
2018-05-15T11:00:15.454Z,25.43
2018-05-15T11:02:43.061Z,25.46
2018-05-15T11:05:10.713Z,25.22
2018-05-15T11:07:38.472Z,25.83
2018-05-15T11:10:06.131Z,25.67
2018-05-15T11:12:33.764Z,25.67
2018-05-15T11:15:01.393Z,25.91
2018-05-15T11:17:28.989Z,26.05
2018-05-15T11:20:08.162Z,25.16
2018-05-15T11:22:47.385Z,25.10
2018-05-15T11:25:15.050Z,25.57
2018-05-15T11:27:42.637Z,25.47
2018-05-15T11:30:10.239Z,25.17
2018-05-15T11:32:37.886Z,25.13
2018-05-15T11:35:05.550Z,25.04
2018-05-15T11:37:33.205Z,25.59
2018-05-15T11:40:00.804Z,25.95
2018-05-15T11:42:28.594Z,26.27
2018-05-15T11:44:56.188Z,26.02
2018-05-15T11:47:23.937Z,25.98
2018-05-15T11:49:51.944Z,26.32
2018-05-15T11:52:20.071Z,26.42
2018-05-15T11:54:46.646Z,26.81
2018-05-15T11:57:14.288Z,26.06
2018-05-15T11:59:41.961Z,26.18
2018-05-15T12:02:09.525Z,26.68
2018-05-15T12:04:37.129Z,26.66
2018-05-15T12:07:04.776Z,26.66
2018-05-15T12:09:32.466Z,26.56
2018-05-15T12:12:00.073Z,26.55
2018-05-15T12:14:27.713Z,26.87
2018-05-15T12:16:55.302Z,27.04
2018-05-15T12:19:22.934Z,26.99
2018-05-15T12:21:50.633Z,26.99
2018-05-15T12:24:18.293Z,25.95
2018-05-15T12:26:45.900Z,25.96
2018-05-15T12:29:13.562Z,25.79
2018-05-15T12:31:41.193Z,25.58
2018-05-15T12:34:08.819Z,25.18
2018-05-15T12:36:36.438Z,25.38
2018-05-15T12:39:04.157Z,25.48
2018-05-15T12:41:31.910Z,25.36
2018-05-15T12:43:59.394Z,25.54
2018-05-15T12:46:27.015Z,25.42
2018-05-15T12:48:54.657Z,25.49
2018-05-15T12:51:22.273Z,25.58
2018-05-15T12:53:49.937Z,25.87
2018-05-15T12:56:17.545Z,26.72
2018-05-15T12:58:45.192Z,27.11
2018-05-15T13:01:12.901Z,27.75
2018-05-15T13:03:40.524Z,28.05
2018-05-15T13:06:08.160Z,28.21
2018-05-15T13:08:35.838Z,28.07
2018-05-15T13:11:03.486Z,27.36
2018-05-15T13:13:31.215Z,27.12
2018-05-15T13:15:58.857Z,26.73
2018-05-15T13:18:26.476Z,26.13
2018-05-15T13:20:54.118Z,25.88
2018-05-15T13:23:21.731Z,25.93
2018-05-15T13:25:49.376Z,26.28
2018-05-15T13:28:16.983Z,26.36
2018-05-15T13:30:44.623Z,27.22
2018-05-15T13:33:12.229Z,27.63
2018-05-15T13:35:39.880Z,28.07
2018-05-15T13:38:07.552Z,28.45
2018-05-15T13:40:35.301Z,28.19
2018-05-15T13:43:02.900Z,28.72
2018-05-15T13:45:30.641Z,28.97
2018-05-15T13:47:58.261Z,28.70
2018-05-15T13:50:25.971Z,28.69
2018-05-15T13:52:53.564Z,29.02
2018-05-15T13:55:21.229Z,29.21
2018-05-15T13:57:48.893Z,28.68
2018-05-15T14:00:16.513Z,28.81
2018-05-15T14:02:44.153Z,28.10
2018-05-15T14:05:11.780Z,27.49
2018-05-15T14:07:39.424Z,27.20
2018-05-15T14:10:07.041Z,27.23
2018-05-15T14:12:34.786Z,26.77
2018-05-15T14:15:02.377Z,26.71
2018-05-15T14:17:30.054Z,26.31
2018-05-15T14:19:57.694Z,26.34
2018-05-15T14:22:25.337Z,26.23
2018-05-15T14:24:52.933Z,26.06
2018-05-15T14:27:20.562Z,25.93
2018-05-15T14:29:48.185Z,25.76
2018-05-15T14:32:15.866Z,25.70
2018-05-15T14:34:43.461Z,25.62
2018-05-15T14:37:11.168Z,25.97
2018-05-15T14:39:38.774Z,26.69
2018-05-15T14:42:17.957Z,26.73
2018-05-15T14:44:45.558Z,27.36
2018-05-15T14:47:13.276Z,28.08
2018-05-15T14:49:40.905Z,28.36
2018-05-15T14:52:08.584Z,28.23
2018-05-15T14:54:36.297Z,27.90
2018-05-15T14:57:03.918Z,27.56
2018-05-15T14:59:31.558Z,27.21
2018-05-15T15:01:59.171Z,26.64
2018-05-15T15:04:26.841Z,27.15
2018-05-15T15:06:54.440Z,27.73
2018-05-15T15:09:22.118Z,28.36
2018-05-15T15:11:49.712Z,28.83
2018-05-15T15:14:17.357Z,29.22
2018-05-15T15:16:45.017Z,29.66
2018-05-15T15:19:12.673Z,29.94
2018-05-15T15:21:40.283Z,30.35
2018-05-15T15:24:07.923Z,30.33
2018-05-15T15:26:35.590Z,29.84
2018-05-15T15:29:03.289Z,29.50
2018-05-15T15:31:30.934Z,29.60
2018-05-15T15:33:58.549Z,29.30
2018-05-15T15:36:26.216Z,28.72
2018-05-15T15:38:53.813Z,28.17
2018-05-15T15:41:21.448Z,27.61
2018-05-15T15:43:49.132Z,27.10
2018-05-15T15:46:16.685Z,26.97
2018-05-15T15:48:44.288Z,27.43
2018-05-15T15:51:11.974Z,28.03
2018-05-15T15:53:39.573Z,28.65
2018-05-15T15:56:07.265Z,28.84
2018-05-15T15:58:34.880Z,29.27
2018-05-15T16:01:02.673Z,29.31
2018-05-15T16:03:30.271Z,29.55
2018-05-15T16:05:57.942Z,29.66
2018-05-15T16:08:25.683Z,29.32
2018-05-15T16:10:53.328Z,29.67
2018-05-15T16:13:21.073Z,29.48
2018-05-15T16:15:48.706Z,29.12
2018-05-15T16:18:16.341Z,29.26
2018-05-15T16:20:43.964Z,29.07
2018-05-15T16:23:11.606Z,29.06
2018-05-15T16:25:39.241Z,29.15
2018-05-15T16:28:06.898Z,29.46
2018-05-15T16:30:34.500Z,29.19
2018-05-15T16:33:02.156Z,28.65
2018-05-15T16:35:29.771Z,28.24
2018-05-15T16:37:57.414Z,28.31
2018-05-15T16:40:25.031Z,28.70
2018-05-15T16:42:52.700Z,28.83
2018-05-15T16:45:20.305Z,28.68
2018-05-15T16:47:47.897Z,28.10
2018-05-15T16:50:15.548Z,27.52
2018-05-15T16:52:43.179Z,27.34
2018-05-15T16:55:10.925Z,27.37
2018-05-15T16:57:38.549Z,27.54
2018-05-15T17:00:06.253Z,27.67
2018-05-15T17:02:33.928Z,27.64
2018-05-15T17:05:01.573Z,27.89
2018-05-15T17:07:29.195Z,27.74
2018-05-15T17:09:56.842Z,27.97
2018-05-15T17:12:24.622Z,28.10
2018-05-15T17:14:52.255Z,28.03
2018-05-15T17:17:19.899Z,28.19
2018-05-15T17:19:47.554Z,28.04
2018-05-15T17:22:15.175Z,28.03
2018-05-15T17:24:42.829Z,27.87
2018-05-15T17:27:10.473Z,27.84
2018-05-15T17:29:38.057Z,27.63
2018-05-15T17:32:05.720Z,27.54
2018-05-15T17:34:33.333Z,27.04
2018-05-15T17:37:01.094Z,26.94
2018-05-15T17:39:28.853Z,26.76
2018-05-15T17:41:56.489Z,26.60
2018-05-15T17:44:24.112Z,26.45
2018-05-15T17:46:51.830Z,26.26
2018-05-15T17:49:19.423Z,26.26
2018-05-15T17:51:47.083Z,26.11
2018-05-15T17:54:14.730Z,26.02
2018-05-15T17:56:42.381Z,25.95
2018-05-15T17:59:10.077Z,25.62
2018-05-15T18:01:37.763Z,25.65
2018-05-15T18:04:05.367Z,25.65
2018-05-15T18:06:33.018Z,25.66
2018-05-15T18:09:00.810Z,25.76
2018-05-15T18:11:28.424Z,25.72
2018-05-15T18:13:56.205Z,25.67
2018-05-15T18:16:24.017Z,25.59
2018-05-15T18:18:52.066Z,25.25
2018-05-15T18:21:19.723Z,25.11
2018-05-15T18:23:47.338Z,25.03
2018-05-15T18:26:15.209Z,25.07
2018-05-15T18:28:42.845Z,25.15
2018-05-15T18:31:10.452Z,25.12
2018-05-15T18:33:38.205Z,24.97
2018-05-15T18:36:05.854Z,25.04
2018-05-15T18:38:33.662Z,25.00
2018-05-15T18:41:01.282Z,24.97
2018-05-15T18:43:28.991Z,24.87
2018-05-15T18:45:56.603Z,24.81
2018-05-15T18:48:24.358Z,24.73
2018-05-15T18:50:52.012Z,24.66
2018-05-15T18:53:19.685Z,24.57
2018-05-15T18:55:47.299Z,24.52
2018-05-15T18:58:14.949Z,24.44
2018-05-15T19:00:42.577Z,24.37
2018-05-15T19:03:10.234Z,24.30
2018-05-15T19:05:38.038Z,24.24
2018-05-15T19:08:05.685Z,24.21
2018-05-15T19:10:33.337Z,24.08
2018-05-15T19:13:01.053Z,24.03
2018-05-15T19:15:28.714Z,24.00
2018-05-15T19:17:56.342Z,23.91
2018-05-15T19:20:24.181Z,23.79
2018-05-15T19:22:51.877Z,23.73
2018-05-15T19:25:19.544Z,23.64
2018-05-15T19:27:47.194Z,23.56
2018-05-15T19:30:14.875Z,23.41
2018-05-15T19:32:42.578Z,23.35
2018-05-15T19:35:10.213Z,23.17
2018-05-15T19:37:37.804Z,23.12
2018-05-15T19:40:10.806Z,22.98
2018-05-15T19:42:38.458Z,23.02
2018-05-15T19:45:06.109Z,23.03
2018-05-15T19:47:33.725Z,23.04
2018-05-15T19:50:01.412Z,23.21
2018-05-15T19:52:29.123Z,23.70
2018-05-15T19:54:56.769Z,24.22
2018-05-15T19:57:24.456Z,24.93
2018-05-15T19:59:52.123Z,25.55
2018-05-15T20:02:19.752Z,25.78
2018-05-15T20:04:47.457Z,26.22
2018-05-15T20:07:15.078Z,26.44
2018-05-15T20:09:42.734Z,26.94
2018-05-15T20:12:10.460Z,27.54
2018-05-15T20:14:38.069Z,27.72
2018-05-15T20:17:05.713Z,28.02
2018-05-15T20:19:33.358Z,27.53
2018-05-15T20:22:01.067Z,26.78
2018-05-15T20:24:28.675Z,26.13
2018-05-15T20:26:56.418Z,25.47
2018-05-15T20:29:24.278Z,24.77
2018-05-15T20:31:52.008Z,24.36
2018-05-15T20:34:19.623Z,24.09
2018-05-15T20:36:47.319Z,23.85
2018-05-15T20:39:15.013Z,23.73
2018-05-15T20:41:42.660Z,23.43
2018-05-15T20:44:10.274Z,23.12
2018-05-15T20:46:37.924Z,22.91
2018-05-15T20:49:05.547Z,22.77
2018-05-15T20:51:33.293Z,22.55
2018-05-15T20:54:00.967Z,22.57
2018-05-15T20:56:28.545Z,22.61
2018-05-15T20:58:56.200Z,22.45
2018-05-15T21:01:23.802Z,22.25
2018-05-15T21:03:51.436Z,22.13
2018-05-15T21:06:19.041Z,21.98
2018-05-15T21:08:46.738Z,21.78
2018-05-15T21:11:14.351Z,21.71
2018-05-15T21:13:42.057Z,21.74
2018-05-15T21:16:09.675Z,21.58
2018-05-15T21:18:37.367Z,21.33
2018-05-15T21:21:04.976Z,20.99
2018-05-15T21:23:32.607Z,20.79
2018-05-15T21:26:00.200Z,20.63
2018-05-15T21:28:27.834Z,20.67
2018-05-15T21:30:55.514Z,20.83
2018-05-15T21:33:23.150Z,20.93
2018-05-15T21:35:50.789Z,20.93
2018-05-15T21:38:18.461Z,21.01
2018-05-15T21:40:46.077Z,20.86
2018-05-15T21:43:13.691Z,20.77
2018-05-15T21:45:41.333Z,20.66
2018-05-15T21:48:08.931Z,20.52
2018-05-15T21:50:36.573Z,20.44
2018-05-15T21:53:04.176Z,20.37
2018-05-15T21:55:31.828Z,20.32
2018-05-15T21:57:59.537Z,20.30
2018-05-15T22:00:27.184Z,20.32
2018-05-15T22:02:54.931Z,20.24
2018-05-15T22:05:22.569Z,20.29
2018-05-15T22:07:50.249Z,20.26
2018-05-15T22:10:17.908Z,20.33
2018-05-15T22:12:57.395Z,20.29
2018-05-15T22:23:40.364Z,20.42
2018-05-15T22:26:08.021Z,20.51
2018-05-15T22:28:35.765Z,20.29
2018-05-15T22:31:03.373Z,20.17
2018-05-15T22:33:31.124Z,20.07
2018-05-15T22:35:58.716Z,19.90
2018-05-15T22:38:26.429Z,19.82
2018-05-15T22:40:54.013Z,19.79
2018-05-15T22:43:21.650Z,19.81
2018-05-15T22:45:49.418Z,19.73
2018-05-15T22:48:17.095Z,19.69
2018-05-15T22:50:44.688Z,19.61
2018-05-15T22:53:12.320Z,19.61
2018-05-15T22:55:39.996Z,19.49
2018-05-15T22:58:07.607Z,19.39
2018-05-15T23:00:35.289Z,19.22
2018-05-15T23:03:02.900Z,19.16
2018-05-15T23:05:30.542Z,19.09
2018-05-15T23:07:58.125Z,19.01
2018-05-15T23:10:25.776Z,19.05
2018-05-15T23:12:53.377Z,19.08
2018-05-15T23:15:21.039Z,19.17
2018-05-15T23:17:48.632Z,19.08
2018-05-15T23:20:16.280Z,19.12
2018-05-15T23:22:43.881Z,18.91
2018-05-15T23:25:11.569Z,18.78
2018-05-15T23:27:39.203Z,18.80
2018-05-15T23:30:06.823Z,18.88
2018-05-15T23:32:34.446Z,18.99
2018-05-15T23:35:02.101Z,18.99
2018-05-15T23:37:29.750Z,18.96
2018-05-15T23:39:57.496Z,18.86
2018-05-15T23:42:25.113Z,18.80
2018-05-15T23:44:52.735Z,18.76
2018-05-15T23:47:20.399Z,18.70
2018-05-15T23:49:48.045Z,18.73
2018-05-15T23:52:15.756Z,18.58
2018-05-15T23:54:43.352Z,18.43
2018-05-15T23:57:11.244Z,18.42
2018-05-15T23:59:38.837Z,18.46
